sensor_id;sensor_type;location;lat;lon;timestamp;temperature;humidity
55026;DHT22;40925;45.666;18.994;2024-02-23T00:01:05;282.50;1868.80
55026;DHT22;40925;45.666;18.994;2024-02-23T00:03:31;307.20;1894.40
55026;DHT22;40925;45.666;18.994;2024-02-23T00:05:58;307.20;1894.40
55026;DHT22;40925;45.666;18.994;2024-02-23T00:08:24;307.20;1868.80
55026;DHT22;40925;45.666;18.994;2024-02-23T00:10:50;307.20;1868.80
55026;DHT22;40925;45.666;18.994;2024-02-23T00:13:15;307.20;1868.80
55026;DHT22;40925;45.666;18.994;2024-02-23T00:15:41;307.20;1868.80
55026;DHT22;40925;45.666;18.994;2024-02-23T00:18:07;307.20;1894.40
55026;DHT22;40925;45.666;18.994;2024-02-23T00:20:33;307.20;1894.40
55026;DHT22;40925;45.666;18.994;2024-02-23T00:23:00;307.20;1894.40
55026;DHT22;40925;45.666;18.994;2024-02-23T00:25:26;307.20;1868.80
55026;DHT22;40925;45.666;18.994;2024-02-23T00:27:51;307.20;1894.40
55026;DHT22;40925;45.666;18.994;2024-02-23T00:30:17;307.20;1894.40
55026;DHT22;40925;45.666;18.994;2024-02-23T00:32:43;282.50;1868.80
55026;DHT22;40925;45.666;18.994;2024-02-23T00:35:08;282.50;1868.80
55026;DHT22;40925;45.666;18.994;2024-02-23T00:37:34;282.50;1868.80
55026;DHT22;40925;45.666;18.994;2024-02-23T00:40:04;282.50;1868.80
55026;DHT22;40925;45.666;18.994;2024-02-23T00:42:31;282.50;1868.80
55026;DHT22;40925;45.666;18.994;2024-02-23T00:44:56;282.50;1868.80
55026;DHT22;40925;45.666;18.994;2024-02-23T00:47:22;282.50;1868.80
55026;DHT22;40925;45.666;18.994;2024-02-23T00:49:48;282.50;1868.80
55026;DHT22;40925;45.666;18.994;2024-02-23T00:52:14;282.50;1868.80
55026;DHT22;40925;45.666;18.994;2024-02-23T00:54:40;282.50;1868.80
55026;DHT22;40925;45.666;18.994;2024-02-23T00:57:06;282.50;1868.80
55026;DHT22;40925;45.666;18.994;2024-02-23T00:59:31;282.50;1894.40
55026;DHT22;40925;45.666;18.994;2024-02-23T01:01:57;282.50;1894.40
55026;DHT22;40925;45.666;18.994;2024-02-23T01:04:23;282.50;1894.40
55026;DHT22;40925;45.666;18.994;2024-02-23T01:06:49;282.50;1868.80
55026;DHT22;40925;45.666;18.994;2024-02-23T01:09:14;307.20;1920.00
55026;DHT22;40925;45.666;18.994;2024-02-23T01:11:42;307.30;1920.00
55026;DHT22;40925;45.666;18.994;2024-02-23T01:14:08;307.50;1894.40
55026;DHT22;40925;45.666;18.994;2024-02-23T01:16:33;307.50;1920.00
55026;DHT22;40925;45.666;18.994;2024-02-23T01:18:59;307.60;1945.60
55026;DHT22;40925;45.666;18.994;2024-02-23T01:21:25;307.80;1945.60
55026;DHT22;40925;45.666;18.994;2024-02-23T01:23:50;307.80;1945.60
55026;DHT22;40925;45.666;18.994;2024-02-23T01:26:16;307.90;1971.20
55026;DHT22;40925;45.666;18.994;2024-02-23T01:28:42;307.90;1945.60
55026;DHT22;40925;45.666;18.994;2024-02-23T01:31:11;307.80;1945.60
55026;DHT22;40925;45.666;18.994;2024-02-23T01:33:37;307.70;1920.00
55026;DHT22;40925;45.666;18.994;2024-02-23T01:36:05;307.70;1920.00
55026;DHT22;40925;45.666;18.994;2024-02-23T01:38:30;307.60;1971.20
55026;DHT22;40925;45.666;18.994;2024-02-23T01:40:58;307.50;1996.80
55026;DHT22;40925;45.666;18.994;2024-02-23T01:43:24;307.30;1996.80
55026;DHT22;40925;45.666;18.994;2024-02-23T01:45:50;307.20;2022.40
55026;DHT22;40925;45.666;18.994;2024-02-23T01:48:16;282.50;2022.40
55026;DHT22;40925;45.666;18.994;2024-02-23T01:50:42;282.00;2022.40
55026;DHT22;40925;45.666;18.994;2024-02-23T01:53:10;282.30;2048.00
55026;DHT22;40925;45.666;18.994;2024-02-23T01:55:36;282.20;2073.60
55026;DHT22;40925;45.666;18.994;2024-02-23T01:58:04;282.10;2073.60
55026;DHT22;40925;45.666;18.994;2024-02-23T02:00:30;282.00;2099.20
55026;DHT22;40925;45.666;18.994;2024-02-23T02:02:57;282.10;2099.20
55026;DHT22;40925;45.666;18.994;2024-02-23T02:05:22;282.00;2099.20
55026;DHT22;40925;45.666;18.994;2024-02-23T02:07:50;282.00;2124.80
55026;DHT22;40925;45.666;18.994;2024-02-23T02:10:20;282.00;2124.80
55026;DHT22;40925;45.666;18.994;2024-02-23T02:12:46;282.00;2124.80
55026;DHT22;40925;45.666;18.994;2024-02-23T02:15:12;281.90;2099.20
55026;DHT22;40925;45.666;18.994;2024-02-23T02:17:37;282.00;2073.60
55026;DHT22;40925;45.666;18.994;2024-02-23T02:20:03;282.00;2073.60
55026;DHT22;40925;45.666;18.994;2024-02-23T02:22:32;282.00;2073.60
55026;DHT22;40925;45.666;18.994;2024-02-23T02:24:58;282.00;2073.60
55026;DHT22;40925;45.666;18.994;2024-02-23T02:27:24;282.00;2099.20
55026;DHT22;40925;45.666;18.994;2024-02-23T02:29:52;281.90;2099.20
55026;DHT22;40925;45.666;18.994;2024-02-23T02:32:18;281.90;2099.20
55026;DHT22;40925;45.666;18.994;2024-02-23T02:34:44;281.90;2099.20
55026;DHT22;40925;45.666;18.994;2024-02-23T02:37:09;281.90;2099.20
55026;DHT22;40925;45.666;18.994;2024-02-23T02:39:36;281.90;2099.20
55026;DHT22;40925;45.666;18.994;2024-02-23T02:42:02;281.90;2099.20
55026;DHT22;40925;45.666;18.994;2024-02-23T02:44:27;281.90;2099.20
55026;DHT22;40925;45.666;18.994;2024-02-23T02:46:59;281.90;2099.20
55026;DHT22;40925;45.666;18.994;2024-02-23T02:49:24;282.00;2073.60
55026;DHT22;40925;45.666;18.994;2024-02-23T02:51:50;282.00;2073.60
55026;DHT22;40925;45.666;18.994;2024-02-23T02:54:16;282.00;2073.60
55026;DHT22;40925;45.666;18.994;2024-02-23T02:56:47;282.00;2073.60
55026;DHT22;40925;45.666;18.994;2024-02-23T02:59:13;282.10;2073.60
55026;DHT22;40925;45.666;18.994;2024-02-23T03:01:39;282.10;2073.60
55026;DHT22;40925;45.666;18.994;2024-02-23T03:04:05;282.10;2073.60
55026;DHT22;40925;45.666;18.994;2024-02-23T03:06:31;282.20;2073.60
55026;DHT22;40925;45.666;18.994;2024-02-23T03:08:56;282.20;2073.60
55026;DHT22;40925;45.666;18.994;2024-02-23T03:11:22;282.30;2073.60
55026;DHT22;40925;45.666;18.994;2024-02-23T03:13:48;282.30;2099.20
55026;DHT22;40925;45.666;18.994;2024-02-23T03:16:17;282.40;2099.20
55026;DHT22;40925;45.666;18.994;2024-02-23T03:18:43;282.40;2124.80
55026;DHT22;40925;45.666;18.994;2024-02-23T03:21:09;282.40;2124.80
55026;DHT22;40925;45.666;18.994;2024-02-23T03:23:36;282.40;2124.80
55026;DHT22;40925;45.666;18.994;2024-02-23T03:26:02;282.40;2124.80
55026;DHT22;40925;45.666;18.994;2024-02-23T03:28:28;282.40;2124.80
55026;DHT22;40925;45.666;18.994;2024-02-23T03:30:53;282.40;2124.80
55026;DHT22;40925;45.666;18.994;2024-02-23T03:33:19;282.40;2150.40
55026;DHT22;40925;45.666;18.994;2024-02-23T03:35:45;282.40;2150.40
55026;DHT22;40925;45.666;18.994;2024-02-23T03:38:10;282.40;2124.80
55026;DHT22;40925;45.666;18.994;2024-02-23T03:40:36;282.40;2124.80
55026;DHT22;40925;45.666;18.994;2024-02-23T03:43:02;282.40;2150.40
55026;DHT22;40925;45.666;18.994;2024-02-23T03:45:28;282.30;2176.00
55026;DHT22;40925;45.666;18.994;2024-02-23T03:47:54;282.20;2201.60
55026;DHT22;40925;45.666;18.994;2024-02-23T03:50:20;282.20;2201.60
55026;DHT22;40925;45.666;18.994;2024-02-23T03:52:45;282.20;2227.20
55026;DHT22;40925;45.666;18.994;2024-02-23T03:55:11;282.20;2252.80
55026;DHT22;40925;45.666;18.994;2024-02-23T03:57:37;282.20;2278.40
55026;DHT22;40925;45.666;18.994;2024-02-23T04:00:03;282.20;2278.40
55026;DHT22;40925;45.666;18.994;2024-02-23T04:02:29;282.20;2278.40
55026;DHT22;40925;45.666;18.994;2024-02-23T04:04:55;282.10;2278.40
55026;DHT22;40925;45.666;18.994;2024-02-23T04:07:24;282.30;2278.40
55026;DHT22;40925;45.666;18.994;2024-02-23T04:09:50;282.40;2278.40
55026;DHT22;40925;45.666;18.994;2024-02-23T04:12:21;282.30;2278.40
55026;DHT22;40925;45.666;18.994;2024-02-23T04:14:47;282.20;2278.40
55026;DHT22;40925;45.666;18.994;2024-02-23T04:17:13;282.10;2278.40
55026;DHT22;40925;45.666;18.994;2024-02-23T04:19:40;282.00;2278.40
55026;DHT22;40925;45.666;18.994;2024-02-23T04:22:06;282.00;2278.40
55026;DHT22;40925;45.666;18.994;2024-02-23T04:24:39;282.00;2278.40
55026;DHT22;40925;45.666;18.994;2024-02-23T04:27:08;282.00;2278.40
55026;DHT22;40925;45.666;18.994;2024-02-23T04:29:34;281.90;2278.40
55026;DHT22;40925;45.666;18.994;2024-02-23T04:32:01;281.80;2278.40
55026;DHT22;40925;45.666;18.994;2024-02-23T04:34:27;281.80;2278.40
55026;DHT22;40925;45.666;18.994;2024-02-23T04:36:53;281.80;2278.40
55026;DHT22;40925;45.666;18.994;2024-02-23T04:39:20;281.80;2278.40
55026;DHT22;40925;45.666;18.994;2024-02-23T04:41:45;281.70;2278.40
55026;DHT22;40925;45.666;18.994;2024-02-23T04:44:11;281.60;2278.40
55026;DHT22;40925;45.666;18.994;2024-02-23T04:46:37;281.60;2278.40
55026;DHT22;40925;45.666;18.994;2024-02-23T04:49:02;256.80;2252.80
55026;DHT22;40925;45.666;18.994;2024-02-23T04:51:28;256.60;2252.80
55026;DHT22;40925;45.666;18.994;2024-02-23T04:53:54;256.40;2252.80
55026;DHT22;40925;45.666;18.994;2024-02-23T04:56:20;256.30;2252.80
55026;DHT22;40925;45.666;18.994;2024-02-23T04:58:46;256.20;2252.80
55026;DHT22;40925;45.666;18.994;2024-02-23T05:01:12;256.00;2252.80
55026;DHT22;40925;45.666;18.994;2024-02-23T05:03:38;231.30;2252.80
55026;DHT22;40925;45.666;18.994;2024-02-23T05:06:04;231.20;2252.80
55026;DHT22;40925;45.666;18.994;2024-02-23T05:08:30;231.20;2252.80
55026;DHT22;40925;45.666;18.994;2024-02-23T05:10:57;231.10;2252.80
55026;DHT22;40925;45.666;18.994;2024-02-23T05:13:23;231.00;2252.80
55026;DHT22;40925;45.666;18.994;2024-02-23T05:15:49;231.00;2252.80
55026;DHT22;40925;45.666;18.994;2024-02-23T05:18:15;231.20;2252.80
55026;DHT22;40925;45.666;18.994;2024-02-23T05:20:40;231.10;2252.80
55026;DHT22;40925;45.666;18.994;2024-02-23T05:23:07;231.00;2252.80
55026;DHT22;40925;45.666;18.994;2024-02-23T05:25:34;231.00;2252.80
55026;DHT22;40925;45.666;18.994;2024-02-23T05:28:00;231.20;2252.80
55026;DHT22;40925;45.666;18.994;2024-02-23T05:30:25;231.00;2252.80
55026;DHT22;40925;45.666;18.994;2024-02-23T05:32:55;231.00;2252.80
55026;DHT22;40925;45.666;18.994;2024-02-23T05:35:23;231.00;2252.80
55026;DHT22;40925;45.666;18.994;2024-02-23T05:37:48;231.00;2252.80
55026;DHT22;40925;45.666;18.994;2024-02-23T05:40:18;231.00;2252.80
55026;DHT22;40925;45.666;18.994;2024-02-23T05:42:44;231.10;2252.80
55026;DHT22;40925;45.666;18.994;2024-02-23T05:45:10;231.20;2252.80
55026;DHT22;40925;45.666;18.994;2024-02-23T05:47:37;231.20;2252.80
55026;DHT22;40925;45.666;18.994;2024-02-23T05:50:09;231.20;2252.80
55026;DHT22;40925;45.666;18.994;2024-02-23T05:52:35;231.20;2252.80
55026;DHT22;40925;45.666;18.994;2024-02-23T05:55:03;231.30;2252.80
55026;DHT22;40925;45.666;18.994;2024-02-23T05:57:29;256.00;2252.80
55026;DHT22;40925;45.666;18.994;2024-02-23T05:59:55;256.00;2252.80
55026;DHT22;40925;45.666;18.994;2024-02-23T06:02:21;256.10;2252.80
55026;DHT22;40925;45.666;18.994;2024-02-23T06:04:47;256.10;2252.80
55026;DHT22;40925;45.666;18.994;2024-02-23T06:07:14;256.30;2252.80
55026;DHT22;40925;45.666;18.994;2024-02-23T06:09:43;256.20;2252.80
55026;DHT22;40925;45.666;18.994;2024-02-23T06:12:09;256.20;2252.80
55026;DHT22;40925;45.666;18.994;2024-02-23T06:14:35;256.30;2252.80
55026;DHT22;40925;45.666;18.994;2024-02-23T06:17:01;256.40;2252.80
55026;DHT22;40925;45.666;18.994;2024-02-23T06:19:29;256.40;2252.80
55026;DHT22;40925;45.666;18.994;2024-02-23T06:21:55;256.60;2252.80
55026;DHT22;40925;45.666;18.994;2024-02-23T06:24:24;256.50;2252.80
55026;DHT22;40925;45.666;18.994;2024-02-23T06:26:50;256.60;2252.80
55026;DHT22;40925;45.666;18.994;2024-02-23T06:29:17;256.60;2252.80
55026;DHT22;40925;45.666;18.994;2024-02-23T06:31:43;256.60;2252.80
55026;DHT22;40925;45.666;18.994;2024-02-23T06:34:14;256.60;2252.80
55026;DHT22;40925;45.666;18.994;2024-02-23T06:36:41;256.60;2252.80
55026;DHT22;40925;45.666;18.994;2024-02-23T06:39:07;256.70;2252.80
55026;DHT22;40925;45.666;18.994;2024-02-23T06:41:34;256.60;2252.80
55026;DHT22;40925;45.666;18.994;2024-02-23T06:44:02;256.80;2252.80
55026;DHT22;40925;45.666;18.994;2024-02-23T06:46:28;256.70;2252.80
55026;DHT22;40925;45.666;18.994;2024-02-23T06:48:54;256.80;2252.80
55026;DHT22;40925;45.666;18.994;2024-02-23T06:51:20;256.80;2252.80
55026;DHT22;40925;45.666;18.994;2024-02-23T06:53:46;256.90;2252.80
55026;DHT22;40925;45.666;18.994;2024-02-23T06:56:12;256.90;2252.80
55026;DHT22;40925;45.666;18.994;2024-02-23T06:58:39;256.90;2252.80
55026;DHT22;40925;45.666;18.994;2024-02-23T07:01:05;281.60;2278.40
55026;DHT22;40925;45.666;18.994;2024-02-23T07:03:33;281.60;2278.40
55026;DHT22;40925;45.666;18.994;2024-02-23T07:06:00;281.60;2278.40
55026;DHT22;40925;45.666;18.994;2024-02-23T07:08:26;281.60;2278.40
55026;DHT22;40925;45.666;18.994;2024-02-23T07:10:53;281.60;2278.40
55026;DHT22;40925;45.666;18.994;2024-02-23T07:13:18;281.60;2278.40
55026;DHT22;40925;45.666;18.994;2024-02-23T07:15:45;281.60;2278.40
55026;DHT22;40925;45.666;18.994;2024-02-23T07:18:11;281.60;2278.40
55026;DHT22;40925;45.666;18.994;2024-02-23T07:20:37;281.70;2278.40
55026;DHT22;40925;45.666;18.994;2024-02-23T07:23:04;281.80;2278.40
55026;DHT22;40925;45.666;18.994;2024-02-23T07:25:31;281.90;2278.40
55026;DHT22;40925;45.666;18.994;2024-02-23T07:27:56;282.00;2278.40
55026;DHT22;40925;45.666;18.994;2024-02-23T07:30:25;282.10;2278.40
55026;DHT22;40925;45.666;18.994;2024-02-23T07:32:51;282.10;2278.40
55026;DHT22;40925;45.666;18.994;2024-02-23T07:35:24;282.10;2278.40
55026;DHT22;40925;45.666;18.994;2024-02-23T07:37:50;282.10;2278.40
55026;DHT22;40925;45.666;18.994;2024-02-23T07:40:16;282.20;2278.40
55026;DHT22;40925;45.666;18.994;2024-02-23T07:42:42;282.20;2278.40
55026;DHT22;40925;45.666;18.994;2024-02-23T07:45:08;282.20;2278.40
55026;DHT22;40925;45.666;18.994;2024-02-23T07:47:34;282.20;2278.40
55026;DHT22;40925;45.666;18.994;2024-02-23T07:53:50;282.30;2278.40
55026;DHT22;40925;45.666;18.994;2024-02-23T07:56:16;282.30;2278.40
55026;DHT22;40925;45.666;18.994;2024-02-23T07:58:43;282.40;2278.40
55026;DHT22;40925;45.666;18.994;2024-02-23T08:01:09;282.50;2278.40
55026;DHT22;40925;45.666;18.994;2024-02-23T08:03:35;307.30;2304.00
55026;DHT22;40925;45.666;18.994;2024-02-23T08:06:01;307.30;2304.00
55026;DHT22;40925;45.666;18.994;2024-02-23T08:08:26;307.40;2304.00
55026;DHT22;40925;45.666;18.994;2024-02-23T08:10:53;307.50;2304.00
55026;DHT22;40925;45.666;18.994;2024-02-23T08:13:19;307.60;2304.00
55026;DHT22;40925;45.666;18.994;2024-02-23T08:15:45;307.80;2304.00
55026;DHT22;40925;45.666;18.994;2024-02-23T08:18:10;308.00;2304.00
55026;DHT22;40925;45.666;18.994;2024-02-23T08:20:36;308.00;2304.00
55026;DHT22;40925;45.666;18.994;2024-02-23T08:23:02;308.10;2304.00
55026;DHT22;40925;45.666;18.994;2024-02-23T08:25:28;332.80;2329.60
55026;DHT22;40925;45.666;18.994;2024-02-23T08:27:56;332.90;2329.60
55026;DHT22;40925;45.666;18.994;2024-02-23T08:30:22;332.90;2329.60
55026;DHT22;40925;45.666;18.994;2024-02-23T08:32:47;333.00;2329.60
55026;DHT22;40925;45.666;18.994;2024-02-23T08:35:14;333.00;2329.60
55026;DHT22;40925;45.666;18.994;2024-02-23T08:37:40;333.00;2329.60
55026;DHT22;40925;45.666;18.994;2024-02-23T08:40:08;333.00;2329.60
55026;DHT22;40925;45.666;18.994;2024-02-23T08:42:34;333.10;2329.60
55026;DHT22;40925;45.666;18.994;2024-02-23T08:45:00;333.10;2329.60
55026;DHT22;40925;45.666;18.994;2024-02-23T08:47:25;333.10;2329.60
55026;DHT22;40925;45.666;18.994;2024-02-23T08:49:57;333.20;2329.60
55026;DHT22;40925;45.666;18.994;2024-02-23T08:52:23;333.20;2329.60
55026;DHT22;40925;45.666;18.994;2024-02-23T08:54:48;333.30;2329.60
55026;DHT22;40925;45.666;18.994;2024-02-23T08:57:14;333.30;2329.60
55026;DHT22;40925;45.666;18.994;2024-02-23T08:59:48;333.30;2329.60
55026;DHT22;40925;45.666;18.994;2024-02-23T09:02:14;333.30;2329.60
55026;DHT22;40925;45.666;18.994;2024-02-23T09:04:39;333.30;2329.60
55026;DHT22;40925;45.666;18.994;2024-02-23T09:07:05;333.40;2329.60
55026;DHT22;40925;45.666;18.994;2024-02-23T09:09:31;333.40;2329.60
55026;DHT22;40925;45.666;18.994;2024-02-23T09:11:57;333.50;2329.60
55026;DHT22;40925;45.666;18.994;2024-02-23T09:14:24;333.50;2329.60
55026;DHT22;40925;45.666;18.994;2024-02-23T09:16:51;333.40;2329.60
55026;DHT22;40925;45.666;18.994;2024-02-23T09:19:17;333.40;2329.60
55026;DHT22;40925;45.666;18.994;2024-02-23T09:21:44;333.40;2329.60
55026;DHT22;40925;45.666;18.994;2024-02-23T09:24:09;333.40;2329.60
55026;DHT22;40925;45.666;18.994;2024-02-23T09:26:35;333.60;2329.60
55026;DHT22;40925;45.666;18.994;2024-02-23T09:29:01;333.50;2329.60
55026;DHT22;40925;45.666;18.994;2024-02-23T09:31:26;333.60;2329.60
55026;DHT22;40925;45.666;18.994;2024-02-23T09:33:55;333.50;2329.60
55026;DHT22;40925;45.666;18.994;2024-02-23T09:36:21;333.60;2329.60
55026;DHT22;40925;45.666;18.994;2024-02-23T09:38:47;333.50;2329.60
55026;DHT22;40925;45.666;18.994;2024-02-23T09:41:21;333.50;2329.60
55026;DHT22;40925;45.666;18.994;2024-02-23T09:43:48;333.40;2329.60
55026;DHT22;40925;45.666;18.994;2024-02-23T09:46:18;333.40;2329.60
55026;DHT22;40925;45.666;18.994;2024-02-23T09:48:44;333.40;2329.60
55026;DHT22;40925;45.666;18.994;2024-02-23T09:51:13;333.30;2329.60
55026;DHT22;40925;45.666;18.994;2024-02-23T09:53:44;333.30;2329.60
55026;DHT22;40925;45.666;18.994;2024-02-23T09:56:10;333.30;2329.60
55026;DHT22;40925;45.666;18.994;2024-02-23T09:58:37;333.30;2329.60
55026;DHT22;40925;45.666;18.994;2024-02-23T10:01:04;333.20;2329.60
55026;DHT22;40925;45.666;18.994;2024-02-23T10:03:30;333.30;2329.60
55026;DHT22;40925;45.666;18.994;2024-02-23T10:05:57;333.30;2329.60
55026;DHT22;40925;45.666;18.994;2024-02-23T10:08:22;333.20;2329.60
55026;DHT22;40925;45.666;18.994;2024-02-23T10:10:48;333.20;2329.60
55026;DHT22;40925;45.666;18.994;2024-02-23T10:13:23;333.30;2329.60
55026;DHT22;40925;45.666;18.994;2024-02-23T10:15:52;333.30;2329.60
55026;DHT22;40925;45.666;18.994;2024-02-23T10:18:19;333.30;2329.60
55026;DHT22;40925;45.666;18.994;2024-02-23T10:20:46;333.60;2329.60
55026;DHT22;40925;45.666;18.994;2024-02-23T10:23:12;333.30;2329.60
55026;DHT22;40925;45.666;18.994;2024-02-23T10:25:47;333.30;2329.60
55026;DHT22;40925;45.666;18.994;2024-02-23T10:28:13;333.50;2329.60
55026;DHT22;40925;45.666;18.994;2024-02-23T10:30:38;333.60;2329.60
55026;DHT22;40925;45.666;18.994;2024-02-23T10:33:05;333.70;2329.60
55026;DHT22;40925;45.666;18.994;2024-02-23T10:35:32;358.40;2329.60
55026;DHT22;40925;45.666;18.994;2024-02-23T10:38:01;358.40;2329.60
55026;DHT22;40925;45.666;18.994;2024-02-23T10:40:30;358.50;2329.60
55026;DHT22;40925;45.666;18.994;2024-02-23T10:43:01;358.70;2329.60
55026;DHT22;40925;45.666;18.994;2024-02-23T10:45:29;358.70;2329.60
55026;DHT22;40925;45.666;18.994;2024-02-23T10:47:55;358.90;2329.60
55026;DHT22;40925;45.666;18.994;2024-02-23T10:50:23;358.90;2329.60
55026;DHT22;40925;45.666;18.994;2024-02-23T10:52:50;359.10;2329.60
55026;DHT22;40925;45.666;18.994;2024-02-23T10:55:16;359.20;2329.60
55026;DHT22;40925;45.666;18.994;2024-02-23T10:57:43;359.30;2329.60
55026;DHT22;40925;45.666;18.994;2024-02-23T11:00:10;384.30;2329.60
55026;DHT22;40925;45.666;18.994;2024-02-23T11:02:40;384.60;2329.60
55026;DHT22;40925;45.666;18.994;2024-02-23T11:05:09;384.90;2329.60
55026;DHT22;40925;45.666;18.994;2024-02-23T11:07:40;409.90;2329.60
55026;DHT22;40925;45.666;18.994;2024-02-23T11:10:07;409.90;2227.20
55026;DHT22;40925;45.666;18.994;2024-02-23T11:12:35;409.90;2252.80
55026;DHT22;40925;45.666;18.994;2024-02-23T11:15:01;410.30;2124.80
55026;DHT22;40925;45.666;18.994;2024-02-23T11:17:31;410.00;2048.00
55026;DHT22;40925;45.666;18.994;2024-02-23T11:19:58;410.20;2048.00
55026;DHT22;40925;45.666;18.994;2024-02-23T11:22:30;410.30;1996.80
55026;DHT22;40925;45.666;18.994;2024-02-23T11:25:07;435.90;1945.60
55026;DHT22;40925;45.666;18.994;2024-02-23T11:27:39;461.10;1945.60
55026;DHT22;40925;45.666;18.994;2024-02-23T11:30:09;461.60;1817.60
55026;DHT22;40925;45.666;18.994;2024-02-23T11:32:48;461.50;1817.60
55026;DHT22;40925;45.666;18.994;2024-02-23T11:35:16;461.60;1792.00
55026;DHT22;40925;45.666;18.994;2024-02-23T11:37:54;486.40;1740.80
55026;DHT22;40925;45.666;18.994;2024-02-23T11:40:31;486.40;1766.40
55026;DHT22;40925;45.666;18.994;2024-02-23T11:42:57;486.40;1715.20
55026;DHT22;40925;45.666;18.994;2024-02-23T11:45:28;461.30;1817.60
55026;DHT22;40925;45.666;18.994;2024-02-23T11:47:57;460.90;1766.40
55026;DHT22;40925;45.666;18.994;2024-02-23T11:50:24;436.00;1766.40
55026;DHT22;40925;45.666;18.994;2024-02-23T11:52:53;435.70;1817.60
55026;DHT22;40925;45.666;18.994;2024-02-23T12:07:41;435.40;2329.60
55026;DHT22;40925;45.666;18.994;2024-02-23T12:10:08;435.20;1843.20
55026;DHT22;40925;45.666;18.994;2024-02-23T12:12:34;410.40;1868.80
55026;DHT22;40925;45.666;18.994;2024-02-23T12:15:00;410.30;1868.80
55026;DHT22;40925;45.666;18.994;2024-02-23T12:17:35;410.20;1868.80
55026;DHT22;40925;45.666;18.994;2024-02-23T12:20:02;410.10;1894.40
55026;DHT22;40925;45.666;18.994;2024-02-23T12:22:28;410.20;1894.40
55026;DHT22;40925;45.666;18.994;2024-02-23T12:24:57;410.30;1920.00
55026;DHT22;40925;45.666;18.994;2024-02-23T12:27:23;410.40;1945.60
55026;DHT22;40925;45.666;18.994;2024-02-23T12:37:21;410.40;1920.00
55026;DHT22;40925;45.666;18.994;2024-02-23T12:39:48;410.50;1920.00
55026;DHT22;40925;45.666;18.994;2024-02-23T12:42:14;410.20;1945.60
55026;DHT22;40925;45.666;18.994;2024-02-23T12:44:40;410.40;1920.00
55026;DHT22;40925;45.666;18.994;2024-02-23T12:47:05;410.10;1945.60
55026;DHT22;40925;45.666;18.994;2024-02-23T12:49:31;410.10;1971.20
55026;DHT22;40925;45.666;18.994;2024-02-23T12:51:57;410.10;1971.20
55026;DHT22;40925;45.666;18.994;2024-02-23T12:54:23;410.20;1971.20
55026;DHT22;40925;45.666;18.994;2024-02-23T12:56:49;410.20;1971.20
55026;DHT22;40925;45.666;18.994;2024-02-23T12:59:15;410.20;1971.20
55026;DHT22;40925;45.666;18.994;2024-02-23T13:01:41;410.30;1945.60
55026;DHT22;40925;45.666;18.994;2024-02-23T13:04:08;410.20;1971.20
55026;DHT22;40925;45.666;18.994;2024-02-23T13:06:39;410.40;1996.80
55026;DHT22;40925;45.666;18.994;2024-02-23T13:09:05;410.20;1971.20
55026;DHT22;40925;45.666;18.994;2024-02-23T13:11:34;410.10;1945.60
55026;DHT22;40925;45.666;18.994;2024-02-23T13:14:00;410.00;1971.20
55026;DHT22;40925;45.666;18.994;2024-02-23T13:16:26;410.00;1996.80
55026;DHT22;40925;45.666;18.994;2024-02-23T13:18:52;409.90;1971.20
55026;DHT22;40925;45.666;18.994;2024-02-23T13:21:18;409.80;1996.80
55026;DHT22;40925;45.666;18.994;2024-02-23T13:23:43;409.90;1996.80
55026;DHT22;40925;45.666;18.994;2024-02-23T13:26:09;409.60;1996.80
55026;DHT22;40925;45.666;18.994;2024-02-23T13:28:36;384.90;1971.20
55026;DHT22;40925;45.666;18.994;2024-02-23T13:31:02;384.80;1996.80
55026;DHT22;40925;45.666;18.994;2024-02-23T13:33:28;384.80;2022.40
55026;DHT22;40925;45.666;18.994;2024-02-23T13:35:54;384.60;2022.40
55026;DHT22;40925;45.666;18.994;2024-02-23T13:38:20;384.50;2048.00
55026;DHT22;40925;45.666;18.994;2024-02-23T13:40:47;384.50;2022.40
55026;DHT22;40925;45.666;18.994;2024-02-23T13:43:13;384.10;2048.00
55026;DHT22;40925;45.666;18.994;2024-02-23T13:45:51;384.50;2022.40
55026;DHT22;40925;45.666;18.994;2024-02-23T13:48:18;384.50;2048.00
55026;DHT22;40925;45.666;18.994;2024-02-23T13:50:50;384.30;2048.00
55026;DHT22;40925;45.666;18.994;2024-02-23T13:53:18;384.50;2073.60
55026;DHT22;40925;45.666;18.994;2024-02-23T13:55:45;384.40;2048.00
55026;DHT22;40925;45.666;18.994;2024-02-23T13:58:11;384.50;2073.60
55026;DHT22;40925;45.666;18.994;2024-02-23T14:00:37;384.40;2073.60
55026;DHT22;40925;45.666;18.994;2024-02-23T14:03:03;384.40;2099.20
55026;DHT22;40925;45.666;18.994;2024-02-23T14:05:29;384.60;2099.20
55026;DHT22;40925;45.666;18.994;2024-02-23T14:07:55;384.50;2099.20
55026;DHT22;40925;45.666;18.994;2024-02-23T14:10:21;384.60;2099.20
55026;DHT22;40925;45.666;18.994;2024-02-23T14:12:47;384.50;2099.20
55026;DHT22;40925;45.666;18.994;2024-02-23T14:15:12;384.50;2099.20
55026;DHT22;40925;45.666;18.994;2024-02-23T14:17:38;384.50;2099.20
55026;DHT22;40925;45.666;18.994;2024-02-23T14:20:04;384.50;2124.80
55026;DHT22;40925;45.666;18.994;2024-02-23T14:22:30;384.50;2124.80
55026;DHT22;40925;45.666;18.994;2024-02-23T14:24:57;384.50;2150.40
55026;DHT22;40925;45.666;18.994;2024-02-23T14:27:22;384.50;2150.40
55026;DHT22;40925;45.666;18.994;2024-02-23T14:29:48;384.60;2150.40
55026;DHT22;40925;45.666;18.994;2024-02-23T14:32:16;384.40;2150.40
55026;DHT22;40925;45.666;18.994;2024-02-23T14:34:43;384.40;2150.40
55026;DHT22;40925;45.666;18.994;2024-02-23T14:37:09;384.40;2150.40
55026;DHT22;40925;45.666;18.994;2024-02-23T14:39:34;384.60;2176.00
55026;DHT22;40925;45.666;18.994;2024-02-23T14:42:00;384.20;2176.00
55026;DHT22;40925;45.666;18.994;2024-02-23T14:44:26;384.20;2150.40
55026;DHT22;40925;45.666;18.994;2024-02-23T14:46:52;384.30;2150.40
55026;DHT22;40925;45.666;18.994;2024-02-23T14:49:21;384.20;2150.40
55026;DHT22;40925;45.666;18.994;2024-02-23T14:51:46;384.20;2150.40
55026;DHT22;40925;45.666;18.994;2024-02-23T14:54:14;384.00;2176.00
55026;DHT22;40925;45.666;18.994;2024-02-23T15:21:23;384.00;2150.40